Time;durP1;ratioP1;P1;durP2;ratioP2;P2;SDS_P1;SDS_P2;PMS_P1;PMS_P2;Temp;Humidity;BMP_temperature;BMP_pressure;BME280_temperature;BME280_humidity;BME280_pressure;Samples;Min_cycle;Max_cycle;Signal;HPM_P1;HPM_P2
2023/06/28 00:00:34;;;;;;;7.20;4.22;;;15.70;99.90;;;;;;5117738;28;20050;-66
2023/06/28 00:03:09;;;;;;;8.00;4.40;;;15.90;99.90;;;;;;5117731;28;20361;-66
2023/06/28 00:05:34;;;;;;;11.60;4.93;;;16.00;99.90;;;;;;5117824;28;20462;-66
2023/06/28 00:08:00;;;;;;;12.23;5.18;;;15.90;99.90;;;;;;5117707;28;20035;-66
2023/06/28 00:10:26;;;;;;;8.10;4.22;;;15.90;99.90;;;;;;5117717;28;20035;-66
2023/06/28 00:12:52;;;;;;;13.68;4.82;;;16.00;99.90;;;;;;5112177;28;20032;-66
2023/06/28 00:15:18;;;;;;;10.43;4.85;;;16.10;99.90;;;;;;5097321;28;20047;-65
2023/06/28 00:17:43;;;;;;;9.48;4.28;;;16.10;99.90;;;;;;5097094;28;20047;-66
2023/06/28 00:20:10;;;;;;;9.77;4.55;;;16.00;99.90;;;;;;5097335;28;20154;-66
2023/06/28 00:22:39;;;;;;;10.38;4.20;;;15.90;99.90;;;;;;5097073;28;20020;-65
2023/06/28 00:25:06;;;;;;;10.30;4.00;;;15.80;99.90;;;;;;5097062;28;20488;-65
2023/06/28 00:27:32;;;;;;;7.68;4.15;;;15.90;99.90;;;;;;5096993;28;20032;-65
2023/06/28 00:29:58;;;;;;;10.68;4.20;;;15.90;99.90;;;;;;5096975;28;20492;-65
2023/06/28 00:32:25;;;;;;;7.10;4.25;;;15.80;99.90;;;;;;5095704;28;20024;-65
2023/06/28 00:34:52;;;;;;;11.30;4.45;;;15.70;99.90;;;;;;5096917;28;20048;-66
2023/06/28 00:37:20;;;;;;;9.75;4.57;;;15.60;99.90;;;;;;5095752;28;20400;-67
2023/06/28 00:39:45;;;;;;;10.90;4.30;;;15.70;99.90;;;;;;5096668;28;20034;-67
2023/06/28 00:42:13;;;;;;;9.98;4.35;;;15.80;99.90;;;;;;5094373;28;20032;-67
2023/06/28 00:44:38;;;;;;;8.50;4.13;;;15.90;99.90;;;;;;5095664;28;20085;-67
2023/06/28 00:47:06;;;;;;;9.52;4.53;;;15.70;99.90;;;;;;5095424;28;20028;-67
2023/06/28 00:49:34;;;;;;;9.63;5.47;;;15.80;99.90;;;;;;5096635;28;20028;-67
2023/06/28 00:52:01;;;;;;;9.32;5.30;;;15.80;99.90;;;;;;5096672;28;20499;-67
2023/06/28 00:54:26;;;;;;;11.05;5.85;;;15.80;99.90;;;;;;5094859;28;20031;-67
2023/06/28 00:56:52;;;;;;;9.07;6.30;;;15.70;99.90;;;;;;5095321;28;20028;-67
2023/06/28 00:59:18;;;;;;;14.13;7.75;;;15.80;99.90;;;;;;5096517;28;20028;-68
2023/06/28 01:01:44;;;;;;;11.63;8.32;;;15.80;99.90;;;;;;5095122;28;20039;-68
2023/06/28 01:04:13;;;;;;;12.32;7.35;;;15.80;99.90;;;;;;5095082;28;20032;-68
2023/06/28 01:06:40;;;;;;;10.30;5.00;;;15.70;99.90;;;;;;5095075;28;20035;-68
2023/06/28 01:09:13;;;;;;;9.05;5.50;;;15.70;99.90;;;;;;5096040;28;20123;-67
2023/06/28 01:11:39;;;;;;;12.38;6.65;;;15.70;99.90;;;;;;5094937;28;20028;-67
2023/06/28 01:14:06;;;;;;;9.75;6.40;;;15.60;99.90;;;;;;5111617;28;20119;-67
2023/06/28 01:16:35;;;;;;;11.15;6.00;;;15.70;99.90;;;;;;5116428;28;20471;-67
2023/06/28 01:19:03;;;;;;;10.38;5.53;;;15.70;99.90;;;;;;5116495;27;20107;-68
2023/06/28 01:21:35;;;;;;;14.05;5.68;;;15.70;99.90;;;;;;5116443;28;20034;-68
2023/06/28 01:24:01;;;;;;;9.43;5.85;;;15.80;99.90;;;;;;5116449;28;20028;-67
2023/06/28 01:26:28;;;;;;;6.13;4.65;;;15.90;99.90;;;;;;5115029;28;20023;-67
2023/06/28 01:28:55;;;;;;;8.23;4.80;;;15.70;99.90;;;;;;5116273;28;20118;-66
2023/06/28 01:31:21;;;;;;;6.78;5.00;;;15.50;99.90;;;;;;5116154;28;20461;-66
2023/06/28 01:33:48;;;;;;;7.20;4.38;;;15.50;99.90;;;;;;5116251;28;20107;-66
2023/06/28 01:36:14;;;;;;;7.78;4.97;;;15.60;99.90;;;;;;5115955;28;20046;-66
2023/06/28 01:38:41;;;;;;;8.32;4.72;;;15.50;99.90;;;;;;5116013;28;20361;-66
2023/06/28 01:41:08;;;;;;;6.65;4.78;;;15.50;99.90;;;;;;5114835;28;20038;-66
2023/06/28 01:43:35;;;;;;;9.80;5.25;;;15.40;99.90;;;;;;5114598;28;20435;-66
2023/06/28 01:46:01;;;;;;;13.20;5.97;;;15.40;99.90;;;;;;5115867;28;20461;-66
2023/06/28 01:48:27;;;;;;;11.38;5.50;;;15.40;99.90;;;;;;5115833;28;20118;-66
2023/06/28 01:50:53;;;;;;;10.10;5.25;;;15.50;99.90;;;;;;5115772;28;20056;-66
2023/06/28 01:53:20;;;;;;;14.52;5.50;;;15.60;99.90;;;;;;5115510;28;20388;-66
2023/06/28 01:55:46;;;;;;;11.15;5.90;;;15.50;99.90;;;;;;5114430;28;20020;-66
2023/06/28 01:58:12;;;;;;;11.73;5.65;;;15.60;99.90;;;;;;5114362;28;20050;-66
2023/06/28 02:00:38;;;;;;;13.13;5.47;;;15.50;99.90;;;;;;5115694;28;20035;-66
2023/06/28 02:03:04;;;;;;;8.57;5.38;;;15.50;99.90;;;;;;5115707;28;20430;-66
2023/06/28 02:05:30;;;;;;;9.90;5.07;;;15.50;99.90;;;;;;5115475;28;20036;-66
2023/06/28 02:07:56;;;;;;;8.63;5.80;;;15.40;99.90;;;;;;5115398;27;20189;-66
2023/06/28 02:10:23;;;;;;;13.45;5.95;;;15.50;99.90;;;;;;5115496;28;20057;-66
2023/06/28 02:12:50;;;;;;;14.75;6.03;;;15.40;99.90;;;;;;5109146;28;20020;-66
2023/06/28 02:15:18;;;;;;;12.60;6.13;;;15.40;99.90;;;;;;5095020;28;20035;-66
2023/06/28 02:17:45;;;;;;;11.68;5.80;;;15.30;99.90;;;;;;5093533;28;20052;-66
2023/06/28 02:20:12;;;;;;;11.35;5.68;;;15.30;99.90;;;;;;5094937;28;20507;-66
2023/06/28 02:22:39;;;;;;;15.23;5.03;;;15.30;99.90;;;;;;5094990;28;20024;-66
2023/06/28 02:25:06;;;;;;;11.25;5.93;;;15.20;99.90;;;;;;5095043;28;20085;-66
2023/06/28 02:27:32;;;;;;;10.27;5.85;;;15.30;99.90;;;;;;5093490;28;20066;-65
2023/06/28 02:29:57;;;;;;;12.27;5.68;;;15.30;99.90;;;;;;5094829;28;20107;-66
2023/06/28 02:32:24;;;;;;;10.23;5.82;;;15.30;99.90;;;;;;5094747;28;20024;-66
2023/06/28 02:34:50;;;;;;;7.95;5.20;;;15.40;99.90;;;;;;5094729;28;20055;-65
2023/06/28 02:37:16;;;;;;;14.82;5.78;;;15.40;99.90;;;;;;5094747;28;20023;-66
2023/06/28 02:39:42;;;;;;;8.63;4.72;;;15.40;99.90;;;;;;5094828;28;20081;-66
2023/06/28 02:42:08;;;;;;;10.48;4.60;;;15.40;99.90;;;;;;5093343;28;20032;-67
2023/06/28 02:44:37;;;;;;;8.07;4.82;;;15.30;99.90;;;;;;5094697;28;20035;-67
2023/06/28 02:47:05;;;;;;;10.30;5.03;;;15.40;99.90;;;;;;5093348;28;20036;-66
2023/06/28 02:49:31;;;;;;;6.95;5.28;;;15.40;99.90;;;;;;5093191;28;20040;-67
2023/06/28 02:51:57;;;;;;;7.68;4.88;;;15.30;99.90;;;;;;5094813;28;20081;-66
2023/06/28 02:54:23;;;;;;;8.43;4.82;;;15.30;99.90;;;;;;5094557;28;20024;-66
2023/06/28 02:56:49;;;;;;;8.82;5.18;;;15.30;99.90;;;;;;5094604;28;20385;-66
2023/06/28 02:59:23;;;;;;;8.73;4.88;;;15.40;99.90;;;;;;5094812;28;20047;-66
2023/06/28 03:01:53;;;;;;;6.53;3.90;;;15.50;99.90;;;;;;5093157;28;20032;-66
2023/06/28 03:04:18;;;;;;;6.85;4.30;;;15.60;99.90;;;;;;5094492;28;20039;-66
2023/06/28 03:06:49;;;;;;;8.77;4.30;;;15.50;99.90;;;;;;5097349;28;20036;-66
2023/06/28 03:09:15;;;;;;;4.70;4.03;;;15.50;99.90;;;;;;5097212;28;20055;-66
2023/06/28 03:11:41;;;;;;;9.68;4.10;;;15.60;99.90;;;;;;5098411;28;20025;-65
2023/06/28 03:14:07;;;;;;;5.95;3.72;;;15.50;99.90;;;;;;5114081;28;20027;-65
2023/06/28 03:16:34;;;;;;;8.10;4.07;;;15.60;99.90;;;;;;5117389;28;20424;-65
2023/06/28 03:19:00;;;;;;;7.03;4.40;;;15.70;99.90;;;;;;5117544;28;20031;-65
2023/06/28 03:21:26;;;;;;;5.63;3.97;;;15.70;99.90;;;;;;5117538;28;20024;-65
2023/06/28 03:23:52;;;;;;;9.00;4.25;;;15.70;99.90;;;;;;5117428;28;20035;-65
2023/06/28 03:26:18;;;;;;;10.80;4.72;;;15.60;99.90;;;;;;5117346;28;20704;-65
2023/06/28 03:28:44;;;;;;;7.82;4.65;;;15.50;99.90;;;;;;5118502;28;20355;-65
2023/06/28 03:31:11;;;;;;;10.20;3.78;;;15.40;99.90;;;;;;5117230;28;20019;-65
2023/06/28 03:33:37;;;;;;;11.30;4.05;;;15.30;99.90;;;;;;5117269;28;20027;-66
2023/06/28 03:36:05;;;;;;;8.82;4.20;;;15.40;99.90;;;;;;5116959;28;20043;-66
2023/06/28 03:38:31;;;;;;;8.50;4.05;;;15.30;99.90;;;;;;5118337;28;20024;-66
2023/06/28 03:40:56;;;;;;;9.02;4.43;;;15.30;99.90;;;;;;5118352;28;20441;-66
2023/06/28 03:43:22;;;;;;;11.05;4.68;;;15.30;99.90;;;;;;5117095;28;20032;-66
2023/06/28 03:45:48;;;;;;;12.35;4.35;;;15.20;99.90;;;;;;5117029;28;20499;-66
2023/06/28 03:48:14;;;;;;;12.45;4.50;;;15.20;99.90;;;;;;5118220;28;20058;-66
2023/06/28 03:50:40;;;;;;;7.75;4.80;;;15.20;99.90;;;;;;5116927;28;20023;-66
2023/06/28 03:53:06;;;;;;;7.10;4.13;;;15.20;99.90;;;;;;5116999;28;20042;-66
2023/06/28 03:55:31;;;;;;;6.97;3.70;;;15.20;99.90;;;;;;5116843;28;20030;-66
2023/06/28 03:57:57;;;;;;;5.32;4.00;;;15.20;99.90;;;;;;5118421;28;20028;-66
2023/06/28 04:00:23;;;;;;;10.02;4.65;;;15.30;99.90;;;;;;5118004;28;20042;-66
2023/06/28 04:02:49;;;;;;;8.10;4.35;;;15.30;99.90;;;;;;5118028;28;20034;-66
2023/06/28 04:05:15;;;;;;;7.80;4.20;;;15.40;99.90;;;;;;5117703;28;20035;-66
2023/06/28 04:07:41;;;;;;;10.63;5.07;;;15.50;99.90;;;;;;5117690;28;20095;-66
2023/06/28 04:10:07;;;;;;;8.23;4.65;;;15.60;99.90;;;;;;5117844;28;20377;-66
2023/06/28 04:12:33;;;;;;;9.32;4.78;;;15.60;99.90;;;;;;5114967;28;20030;-66
2023/06/28 04:15:01;;;;;;;10.43;4.80;;;15.60;99.90;;;;;;5097041;28;20039;-66
2023/06/28 04:17:27;;;;;;;9.02;4.63;;;15.60;99.90;;;;;;5097108;28;20040;-66
2023/06/28 04:19:52;;;;;;;9.25;4.55;;;15.50;99.90;;;;;;5097107;28;20382;-66
2023/06/28 04:22:18;;;;;;;9.75;4.70;;;15.60;99.90;;;;;;5097108;28;20056;-66
2023/06/28 04:24:44;;;;;;;9.07;4.50;;;15.50;99.90;;;;;;5097118;28;20119;-66
2023/06/28 04:27:10;;;;;;;6.13;4.38;;;15.50;99.90;;;;;;5096993;28;20032;-66
2023/06/28 04:29:36;;;;;;;12.38;4.70;;;15.60;99.90;;;;;;5096996;28;20060;-66
2023/06/28 04:32:02;;;;;;;8.13;4.97;;;15.70;99.90;;;;;;5097007;28;20051;-66
2023/06/28 04:34:28;;;;;;;6.75;4.53;;;15.80;99.90;;;;;;5096940;28;20032;-66
2023/06/28 04:36:58;;;;;;;9.20;4.80;;;15.70;99.90;;;;;;5096876;28;20107;-65
2023/06/28 04:39:24;;;;;;;10.25;5.53;;;15.70;99.90;;;;;;5096993;28;20028;-66
2023/06/28 04:41:51;;;;;;;8.50;5.00;;;15.70;99.90;;;;;;5096685;28;20047;-65
2023/06/28 04:44:17;;;;;;;6.88;4.35;;;15.70;99.90;;;;;;5096667;28;20044;-65
2023/06/28 04:46:46;;;;;;;9.65;4.85;;;15.60;99.90;;;;;;5096748;28;20028;-65
2023/06/28 04:49:12;;;;;;;8.88;4.60;;;15.60;99.90;;;;;;5096417;28;20458;-65
2023/06/28 04:51:38;;;;;;;6.60;4.60;;;15.60;99.90;;;;;;5096617;28;20051;-66
2023/06/28 04:54:04;;;;;;;6.15;5.03;;;15.60;99.90;;;;;;5096504;28;20027;-65
2023/06/28 04:56:30;;;;;;;9.18;5.68;;;15.60;99.90;;;;;;5096502;28;20032;-65
2023/06/28 04:58:56;;;;;;;10.95;4.65;;;15.60;99.90;;;;;;5096532;28;20024;-65
2023/06/28 05:01:21;;;;;;;6.55;4.95;;;15.60;99.90;;;;;;5096415;28;20031;-66
2023/06/28 05:03:47;;;;;;;6.20;3.95;;;15.70;99.90;;;;;;5096241;28;20028;-66
2023/06/28 05:06:13;;;;;;;9.75;4.97;;;15.80;99.90;;;;;;5096203;28;20466;-66
2023/06/28 05:08:39;;;;;;;6.57;4.10;;;15.90;99.90;;;;;;5096300;28;20039;-66
2023/06/28 05:11:07;;;;;;;5.70;4.07;;;15.90;99.90;;;;;;5096110;28;20028;-65
2023/06/28 05:13:33;;;;;;;7.38;4.70;;;15.90;99.90;;;;;;5106998;28;20074;-65
2023/06/28 05:15:59;;;;;;;7.82;4.75;;;15.90;99.90;;;;;;5116638;28;20042;-65
2023/06/28 05:18:25;;;;;;;8.68;4.90;;;15.80;99.90;;;;;;5116361;28;20034;-65
2023/06/28 05:20:51;;;;;;;8.40;4.45;;;15.80;99.90;;;;;;5116530;28;20024;-65
2023/06/28 05:23:23;;;;;;;7.85;5.60;;;15.90;99.90;;;;;;5116345;28;20370;-65
2023/06/28 05:25:49;;;;;;;9.52;5.68;;;15.80;99.90;;;;;;5116197;28;20077;-65
2023/06/28 05:28:16;;;;;;;7.55;5.63;;;15.80;99.90;;;;;;5115616;28;20074;-65
2023/06/28 05:30:43;;;;;;;11.82;5.78;;;15.90;99.90;;;;;;5116430;28;20465;-65
2023/06/28 05:33:10;;;;;;;10.15;5.75;;;15.90;99.90;;;;;;5116049;28;20393;-66
2023/06/28 05:35:36;;;;;;;11.32;5.40;;;16.00;99.90;;;;;;5116204;28;20099;-66
2023/06/28 05:38:03;;;;;;;6.90;4.88;;;16.10;99.90;;;;;;5115951;28;20110;-65
2023/06/28 05:40:30;;;;;;;8.23;4.95;;;16.20;99.90;;;;;;5116046;28;20039;-66
2023/06/28 05:42:58;;;;;;;5.70;4.65;;;16.30;99.90;;;;;;5116110;28;20362;-66
2023/06/28 05:45:28;;;;;;;6.60;5.20;;;16.30;99.90;;;;;;5115948;28;20036;-66
2023/06/28 05:47:55;;;;;;;8.32;4.95;;;16.20;99.90;;;;;;5115778;28;20031;-66
2023/06/28 05:50:21;;;;;;;8.73;5.53;;;16.20;99.90;;;;;;5115862;27;20377;-66
2023/06/28 05:52:48;;;;;;;9.60;5.20;;;16.20;99.90;;;;;;5115773;28;20075;-66
2023/06/28 05:55:14;;;;;;;8.10;6.35;;;16.20;99.90;;;;;;5115739;28;20027;-66
2023/06/28 05:57:40;;;;;;;14.13;7.78;;;16.30;99.90;;;;;;5115852;28;20418;-66
2023/06/28 06:00:08;;;;;;;12.10;9.18;;;16.40;99.90;;;;;;5115685;28;20384;-66
2023/06/28 06:02:34;;;;;;;13.88;10.00;;;16.40;99.90;;;;;;5115757;28;20073;-65
2023/06/28 06:05:02;;;;;;;11.82;8.30;;;16.50;99.90;;;;;;5115473;28;20126;-65
2023/06/28 06:07:28;;;;;;;16.48;8.95;;;16.30;99.90;;;;;;5115598;28;20032;-65
2023/06/28 06:09:57;;;;;;;13.48;8.90;;;16.30;99.90;;;;;;5115425;28;20123;-65
2023/06/28 06:12:24;;;;;;;11.73;7.80;;;16.30;99.90;;;;;;5113038;28;20035;-65
2023/06/28 06:14:50;;;;;;;14.52;9.20;;;16.30;99.90;;;;;;5095167;28;20032;-65
2023/06/28 06:17:17;;;;;;;14.18;9.27;;;16.40;99.90;;;;;;5094760;28;20049;-65
2023/06/28 06:19:43;;;;;;;17.23;8.30;;;16.30;99.90;;;;;;5094935;28;20038;-65
2023/06/28 06:22:09;;;;;;;18.88;9.23;;;16.40;99.90;;;;;;5094978;28;20032;-65
2023/06/28 06:24:35;;;;;;;19.92;9.40;;;16.50;99.90;;;;;;5094931;28;20051;-65
2023/06/28 06:27:01;;;;;;;16.58;9.13;;;16.50;99.90;;;;;;5094895;28;20083;-65
2023/06/28 06:29:27;;;;;;;17.75;9.70;;;16.40;99.90;;;;;;5094786;28;20096;-65
2023/06/28 06:31:53;;;;;;;17.88;10.10;;;16.50;99.90;;;;;;5094839;28;20090;-65
2023/06/28 06:34:19;;;;;;;17.50;9.50;;;16.60;99.90;;;;;;5094469;28;20101;-65
2023/06/28 06:36:45;;;;;;;20.60;10.43;;;16.60;99.90;;;;;;5094659;28;20039;-65
2023/06/28 06:39:10;;;;;;;20.10;9.82;;;16.50;99.90;;;;;;5093804;28;20036;-65
2023/06/28 06:41:36;;;;;;;20.42;10.27;;;16.30;99.90;;;;;;5094682;28;20069;-65
2023/06/28 06:44:02;;;;;;;15.50;9.68;;;16.30;99.90;;;;;;5094553;28;20043;-65
2023/06/28 06:46:28;;;;;;;21.10;11.52;;;16.20;99.90;;;;;;5094655;28;20113;-65
2023/06/28 06:48:55;;;;;;;19.83;10.25;;;16.20;99.90;;;;;;5094516;28;20032;-65
2023/06/28 06:51:21;;;;;;;27.65;10.18;;;16.30;99.90;;;;;;5094574;28;20054;-65
2023/06/28 06:53:47;;;;;;;18.83;9.93;;;16.40;99.90;;;;;;5094778;28;20085;-65
2023/06/28 06:56:19;;;;;;;16.42;9.40;;;16.50;99.90;;;;;;5094551;28;20024;-65
2023/06/28 06:58:45;;;;;;;20.88;9.80;;;16.50;99.90;;;;;;5094401;28;20032;-65
2023/06/28 07:01:11;;;;;;;12.00;9.35;;;16.40;99.90;;;;;;5094455;28;20492;-65
2023/06/28 07:03:36;;;;;;;15.20;9.18;;;16.50;99.90;;;;;;5094517;28;20032;-65
2023/06/28 07:06:02;;;;;;;16.77;8.93;;;16.60;99.90;;;;;;5094349;28;20423;-65
2023/06/28 07:08:28;;;;;;;16.02;8.45;;;16.60;99.90;;;;;;5094328;28;20032;-65
2023/06/28 07:10:54;;;;;;;12.68;8.63;;;16.60;99.90;;;;;;5094313;28;20020;-65
2023/06/28 07:13:20;;;;;;;13.10;8.75;;;16.60;99.90;;;;;;5103382;28;20028;-65
2023/06/28 07:15:46;;;;;;;11.32;8.93;;;16.70;99.90;;;;;;5114652;28;20384;-65
2023/06/28 07:18:12;;;;;;;13.40;9.13;;;16.70;99.90;;;;;;5114545;28;20051;-65
2023/06/28 07:20:37;;;;;;;14.15;9.40;;;16.70;99.90;;;;;;5114693;28;20495;-65
2023/06/28 07:23:03;;;;;;;14.13;9.35;;;16.70;99.90;;;;;;5114717;28;20024;-65
2023/06/28 07:25:30;;;;;;;13.15;8.10;;;16.70;99.90;;;;;;5114580;28;20031;-65
2023/06/28 07:27:55;;;;;;;13.00;8.10;;;16.70;99.90;;;;;;5114435;28;20039;-65
2023/06/28 07:30:23;;;;;;;12.52;7.93;;;16.70;99.90;;;;;;5114550;28;20465;-65
2023/06/28 07:32:49;;;;;;;13.98;8.65;;;16.80;99.90;;;;;;5114609;28;20024;-65
2023/06/28 07:35:15;;;;;;;16.02;8.95;;;17.00;99.90;;;;;;5114542;28;20044;-65
2023/06/28 07:37:41;;;;;;;23.27;10.27;;;16.90;99.90;;;;;;5114610;28;20023;-65
2023/06/28 07:40:08;;;;;;;32.53;13.35;;;16.90;99.90;;;;;;5114448;28;20031;-65
2023/06/28 07:42:33;;;;;;;38.50;16.45;;;17.10;99.90;;;;;;5114628;28;20035;-65
2023/06/28 07:44:59;;;;;;;39.10;15.93;;;17.20;99.90;;;;;;5114400;28;20480;-65
2023/06/28 07:47:25;;;;;;;36.80;16.27;;;17.30;99.90;;;;;;5114381;28;20036;-65
2023/06/28 07:49:51;;;;;;;34.03;15.82;;;17.40;99.90;;;;;;5114768;28;20393;-65
2023/06/28 07:52:17;;;;;;;42.40;16.13;;;17.50;99.90;;;;;;5118351;28;20027;-65
2023/06/28 07:54:42;;;;;;;34.97;15.40;;;17.50;99.90;;;;;;5118308;28;20044;-65
2023/06/28 07:57:09;;;;;;;30.80;17.35;;;17.60;99.90;;;;;;5118082;28;20477;-65
2023/06/28 07:59:35;;;;;;;32.22;16.25;;;17.60;99.90;;;;;;5117980;28;20110;-65
2023/06/28 08:02:00;;;;;;;29.33;16.05;;;17.70;99.90;;;;;;5117893;28;20496;-65
2023/06/28 08:04:26;;;;;;;29.05;14.55;;;17.70;99.90;;;;;;5117891;28;20027;-65
2023/06/28 08:06:52;;;;;;;30.10;15.02;;;17.70;99.90;;;;;;5117797;28;20043;-65
2023/06/28 08:09:18;;;;;;;35.20;16.80;;;17.70;99.90;;;;;;5117508;28;20118;-65
2023/06/28 08:11:44;;;;;;;38.33;17.30;;;17.60;99.90;;;;;;5117986;28;20019;-65
2023/06/28 08:14:09;;;;;;;35.70;17.55;;;17.70;99.90;;;;;;5101433;28;20031;-65
2023/06/28 08:16:35;;;;;;;33.92;16.08;;;17.90;99.90;;;;;;5096943;28;20138;-65
2023/06/28 08:19:01;;;;;;;33.90;17.63;;;17.90;99.90;;;;;;5097310;28;20039;-65
2023/06/28 08:21:27;;;;;;;34.50;17.05;;;17.90;99.90;;;;;;5097232;28;20365;-65
2023/06/28 08:23:53;;;;;;;39.83;18.98;;;17.90;99.90;;;;;;5097079;28;20036;-65
2023/06/28 08:26:19;;;;;;;60.05;25.33;;;17.90;99.90;;;;;;5097034;28;20383;-64
2023/06/28 08:28:44;;;;;;;60.90;24.38;;;18.00;99.90;;;;;;5097141;28;20028;-65
2023/06/28 08:31:10;;;;;;;86.18;31.20;;;17.80;99.90;;;;;;5097175;28;20040;-65
2023/06/28 08:33:36;;;;;;;75.18;29.50;;;17.90;99.90;;;;;;5096998;28;20518;-65
2023/06/28 08:36:02;;;;;;;89.80;31.25;;;18.00;99.90;;;;;;5097022;28;20078;-65
2023/06/28 08:38:28;;;;;;;86.80;31.13;;;18.00;99.90;;;;;;5096818;28;20111;-65
2023/06/28 08:40:53;;;;;;;86.28;33.10;;;17.90;99.90;;;;;;5096923;28;20429;-65
2023/06/28 08:43:21;;;;;;;88.68;31.15;;;17.90;99.90;;;;;;5096785;28;20066;-64
2023/06/28 08:45:47;;;;;;;87.22;30.52;;;17.90;99.90;;;;;;5096678;28;20020;-64
2023/06/28 08:48:14;;;;;;;88.78;31.60;;;17.90;99.90;;;;;;5096792;28;20300;-65
2023/06/28 08:50:41;;;;;;;80.78;29.95;;;18.00;99.90;;;;;;5096656;28;20035;-64
2023/06/28 08:53:09;;;;;;;79.95;29.27;;;18.00;99.90;;;;;;5096777;28;20088;-64
2023/06/28 08:55:37;;;;;;;72.07;27.42;;;18.00;99.90;;;;;;5096633;28;20093;-65
2023/06/28 08:58:05;;;;;;;64.22;23.67;;;18.00;99.90;;;;;;5096409;28;20084;-65
2023/06/28 09:00:31;;;;;;;55.78;22.73;;;18.00;99.90;;;;;;5096431;28;20024;-64
2023/06/28 09:02:57;;;;;;;54.53;20.92;;;18.10;99.90;;;;;;5095502;28;20039;-64
2023/06/28 09:05:23;;;;;;;46.65;19.63;;;18.20;99.90;;;;;;5096307;28;20374;-64
2023/06/28 09:07:53;;;;;;;48.30;18.92;;;18.00;99.90;;;;;;5096295;28;20024;-64
2023/06/28 09:10:20;;;;;;;37.60;16.17;;;18.00;99.90;;;;;;5096153;28;20106;-64
2023/06/28 09:12:47;;;;;;;32.88;15.82;;;18.20;99.90;;;;;;5100422;28;20020;-64
2023/06/28 09:15:16;;;;;;;40.92;16.63;;;18.20;99.90;;;;;;5116535;28;20123;-64
2023/06/28 09:17:42;;;;;;;37.50;16.55;;;18.10;99.90;;;;;;5116167;28;20043;-64
2023/06/28 09:20:18;;;;;;;34.35;17.10;;;18.10;99.90;;;;;;5116467;28;20042;-64
2023/06/28 09:23:21;;;;;;;38.28;16.48;;;18.20;99.90;;;;;;5116408;28;20122;-64
2023/06/28 09:25:49;;;;;;;31.10;13.48;;;18.20;99.90;;;;;;5109456;28;20052;-64
2023/06/28 09:28:16;;;;;;;25.30;12.07;;;18.20;99.90;;;;;;5116089;28;20036;-64
2023/06/28 09:30:54;;;;;;;21.98;11.40;;;18.00;99.90;;;;;;5116303;28;20098;-64
2023/06/28 09:33:21;;;;;;;23.52;11.75;;;17.90;99.90;;;;;;5116137;28;20027;-64
2023/06/28 09:35:51;;;;;;;23.83;11.38;;;17.80;99.90;;;;;;5116071;28;20032;-64
2023/06/28 09:38:18;;;;;;;20.73;11.00;;;17.70;99.90;;;;;;5116216;28;20038;-64
2023/06/28 09:40:44;;;;;;;23.17;11.38;;;17.60;99.90;;;;;;5115963;28;20054;-64
2023/06/28 09:43:14;;;;;;;20.35;11.15;;;17.70;99.90;;;;;;5116080;28;20028;-64
2023/06/28 09:45:40;;;;;;;16.40;9.70;;;17.70;99.90;;;;;;5115893;28;20547;-64
2023/06/28 09:48:06;;;;;;;17.40;9.25;;;17.70;99.90;;;;;;5115871;28;20067;-64
2023/06/28 09:50:41;;;;;;;15.60;9.18;;;17.70;99.90;;;;;;5115907;28;20177;-64
2023/06/28 09:53:08;;;;;;;15.77;9.68;;;17.70;99.90;;;;;;5116106;28;20469;-65
2023/06/28 09:55:33;;;;;;;16.95;8.60;;;17.60;99.90;;;;;;5115911;28;20031;-65
2023/06/28 09:58:00;;;;;;;15.95;8.85;;;17.60;99.90;;;;;;5115672;28;20029;-65
2023/06/28 10:00:28;;;;;;;15.02;8.45;;;17.60;99.90;;;;;;5115560;28;20491;-65
2023/06/28 10:02:56;;;;;;;14.23;7.47;;;17.70;99.90;;;;;;5115579;28;20028;-65
2023/06/28 10:05:23;;;;;;;17.95;8.75;;;17.70;99.90;;;;;;5115638;28;20024;-65
2023/06/28 10:07:50;;;;;;;14.40;7.55;;;17.70;99.90;;;;;;5115528;28;20138;-65
2023/06/28 10:10:17;;;;;;;9.18;6.00;;;17.70;99.90;;;;;;5115175;28;20032;-64
2023/06/28 10:12:44;;;;;;;15.38;7.43;;;17.70;99.90;;;;;;5111302;28;20031;-64
2023/06/28 10:15:15;;;;;;;13.48;6.50;;;17.70;99.90;;;;;;5095116;28;20028;-64
2023/06/28 10:17:41;;;;;;;;;;;17.50;99.90;;;;;;5095254;28;20062;-65
2023/06/28 10:20:07;;;;;;;12.90;6.10;;;17.50;99.90;;;;;;5095093;28;20360;-64
2023/06/28 10:22:34;;;;;;;10.63;6.50;;;17.50;99.90;;;;;;5094925;28;20024;-65
2023/06/28 10:25:02;;;;;;;9.48;6.13;;;17.50;99.90;;;;;;5094795;28;20480;-64
2023/06/28 10:27:28;;;;;;;10.88;6.00;;;17.60;99.90;;;;;;5094720;28;20043;-64
2023/06/28 10:29:56;;;;;;;9.95;6.22;;;17.60;99.90;;;;;;5094818;28;20043;-64
2023/06/28 10:32:23;;;;;;;9.68;5.40;;;17.70;99.90;;;;;;5094769;28;20020;-64
2023/06/28 10:34:51;;;;;;;9.13;6.10;;;17.80;99.90;;;;;;5094725;28;20465;-64
2023/06/28 10:37:23;;;;;;;9.15;5.97;;;17.70;99.90;;;;;;5094828;28;20031;-64
2023/06/28 10:39:53;;;;;;;7.15;5.53;;;17.70;99.90;;;;;;5094506;28;20035;-65
2023/06/28 10:42:20;;;;;;;7.80;5.63;;;17.70;99.90;;;;;;5094729;28;20040;-64
2023/06/28 10:44:56;;;;;;;6.93;4.88;;;17.80;99.90;;;;;;5094560;28;20458;-64
2023/06/28 10:47:22;;;;;;;13.82;6.07;;;17.80;99.90;;;;;;5094543;28;20077;-65
2023/06/28 10:50:08;;;;;;;12.50;6.20;;;17.80;99.90;;;;;;5094748;28;20038;-64
2023/06/28 10:52:34;;;;;;;6.35;4.80;;;18.00;99.90;;;;;;5094515;28;20115;-65
2023/06/28 10:55:03;;;;;;;9.95;5.35;;;18.00;99.90;;;;;;5094443;28;20046;-64
2023/06/28 10:58:10;;;;;;;8.95;4.85;;;18.20;99.90;;;;;;5094544;28;20108;-64
2023/06/28 11:00:47;;;;;;;8.18;5.88;;;18.10;99.90;;;;;;5094409;28;20028;-64
2023/06/28 11:03:14;;;;;;;7.75;5.38;;;18.20;99.90;;;;;;5094481;28;20020;-64
2023/06/28 11:06:01;;;;;;;7.55;5.03;;;18.40;99.90;;;;;;5094501;28;20024;-64
2023/06/28 11:08:41;;;;;;;10.05;5.05;;;18.60;99.90;;;;;;5094133;28;20040;-64
2023/06/28 11:11:08;;;;;;;;;;;18.40;99.90;;;;;;5094611;28;20054;-64
2023/06/28 11:13:42;;;;;;;7.28;5.05;;;18.40;99.90;;;;;;5105337;28;19908;-64
2023/06/28 11:16:09;;;;;;;8.73;4.90;;;18.40;99.90;;;;;;5114506;28;20105;-64
2023/06/28 11:18:36;;;;;;;6.22;4.32;;;18.60;99.90;;;;;;5114719;28;20040;-64
2023/06/28 11:21:03;;;;;;;7.80;4.45;;;18.60;99.90;;;;;;5114680;28;20039;-64
2023/06/28 11:23:36;;;;;;;5.70;4.63;;;18.60;99.90;;;;;;5114607;28;20066;-64
2023/06/28 11:26:04;;;;;;;5.78;4.05;;;18.80;99.90;;;;;;5117154;28;20488;-64
2023/06/28 11:28:33;;;;;;;5.88;4.43;;;18.80;99.90;;;;;;5118568;28;20069;-64
2023/06/28 11:31:22;;;;;;;5.57;4.85;;;18.80;99.90;;;;;;5118612;28;20027;-64
2023/06/28 11:33:54;;;;;;;7.47;5.28;;;18.80;99.90;;;;;;5118597;28;20465;-64
2023/06/28 11:36:24;;;;;;;5.75;4.00;;;18.80;99.90;;;;;;5118334;28;20543;-64
2023/06/28 11:38:50;;;;;;;5.13;4.28;;;18.90;99.90;;;;;;5118519;28;20036;-64
2023/06/28 11:41:16;;;;;;;6.00;3.92;;;19.00;99.90;;;;;;5118775;28;20546;-64
2023/06/28 11:43:47;;;;;;;5.68;3.60;;;19.00;99.90;;;;;;5118254;28;20453;-64
2023/06/28 11:46:18;;;;;;;7.55;3.80;;;18.90;99.90;;;;;;5118388;28;20024;-64
2023/06/28 11:48:48;;;;;;;4.05;3.40;;;18.80;99.90;;;;;;5118081;28;20032;-63
2023/06/28 11:51:15;;;;;;;;;;;19.00;99.90;;;;;;5118649;28;20077;-63
2023/06/28 11:53:41;;;;;;;6.53;4.30;;;19.10;99.90;;;;;;5118199;28;20186;-63
2023/06/28 11:56:07;;;;;;;4.35;3.33;;;19.20;99.90;;;;;;5118021;28;20522;-63
2023/06/28 11:58:35;;;;;;;4.43;3.55;;;19.30;99.90;;;;;;5118259;27;20103;-63
2023/06/28 12:01:03;;;;;;;5.30;3.63;;;19.40;99.90;;;;;;5118078;28;20036;-63
2023/06/28 12:03:37;;;;;;;4.13;3.42;;;19.30;99.90;;;;;;5117927;28;20098;-63
2023/06/28 12:06:05;;;;;;;6.25;3.80;;;19.00;99.90;;;;;;5117759;28;20051;-63
2023/06/28 12:08:33;;;;;;;6.28;4.45;;;19.20;99.90;;;;;;5117837;28;20065;-63
2023/06/28 12:11:12;;;;;;;9.23;4.47;;;19.20;99.90;;;;;;5117602;28;20023;-63
2023/06/28 12:13:39;;;;;;;5.95;3.92;;;19.10;99.90;;;;;;5106148;28;20024;-63
2023/06/28 12:16:13;;;;;;;5.70;3.50;;;19.50;99.90;;;;;;5097251;28;20396;-63
2023/06/28 12:19:14;;;;;;;4.28;3.10;;;19.70;99.90;;;;;;5097251;28;20032;-63
2023/06/28 12:21:40;;;;;;;7.22;3.58;;;19.70;99.90;;;;;;5085253;28;20371;-63
2023/06/28 12:24:26;;;;;;;5.40;3.53;;;19.90;99.90;;;;;;5097172;28;20043;-63
2023/06/28 12:26:54;;;;;;;4.57;3.10;;;19.80;99.90;;;;;;5097086;28;20032;-63
2023/06/28 12:29:24;;;;;;;4.60;3.03;;;20.00;99.90;;;;;;5097075;28;20039;-63
2023/06/28 12:31:52;;;;;;;4.13;3.10;;;20.00;99.90;;;;;;5097159;28;20491;-63
2023/06/28 12:34:28;;;;;;;4.85;3.50;;;20.00;99.90;;;;;;5096987;28;20032;-63
2023/06/28 12:36:56;;;;;;;5.28;3.30;;;20.10;99.90;;;;;;5097112;28;20035;-63
2023/06/28 12:39:30;;;;;;;5.78;4.03;;;20.20;99.90;;;;;;5096963;28;20028;-63
2023/06/28 12:42:04;;;;;;;6.70;3.83;;;20.40;99.90;;;;;;5096932;28;20542;-63